createdAt,value
2023-08-10T00:01:41.433Z,100099.56
2023-08-10T00:04:44.217Z,100101.85
2023-08-10T00:07:47.077Z,100102.05
2023-08-10T00:10:53.136Z,100101.26
2023-08-10T00:13:55.989Z,100099.16
2023-08-10T00:16:58.888Z,100105.52
2023-08-10T00:20:02.239Z,100098.79
2023-08-10T00:23:07.278Z,100099.59
2023-08-10T00:26:10.537Z,100095.38
2023-08-10T00:29:13.304Z,100097.29
2023-08-10T00:32:17.190Z,100099.33
2023-08-10T00:35:20.062Z,100102.14
2023-08-10T00:38:22.845Z,100102.97
2023-08-10T00:41:25.698Z,100109.28
2023-08-10T00:44:28.483Z,100110.24
2023-08-10T00:47:32.611Z,100109.17
2023-08-10T00:50:35.637Z,100104.77
2023-08-10T00:53:39.128Z,100106.68
2023-08-10T00:56:42.605Z,100103.80
2023-08-10T00:59:47.217Z,100104.33
2023-08-10T01:02:50.169Z,100110.22
2023-08-10T01:06:07.073Z,100121.19
2023-08-10T01:09:43.131Z,100116.06
2023-08-10T01:12:58.351Z,100116.68
2023-08-10T01:16:06.452Z,100120.83
2023-08-10T01:19:34.046Z,100121.22
2023-08-10T01:23:02.171Z,100124.63
2023-08-10T01:26:06.587Z,100129.45
2023-08-10T01:29:09.600Z,100128.27
2023-08-10T01:32:15.768Z,100132.14
2023-08-10T01:35:19.022Z,100132.73
2023-08-10T01:38:21.892Z,100133.49
2023-08-10T01:41:24.688Z,100135.15
2023-08-10T01:44:27.534Z,100133.09
2023-08-10T01:47:37.175Z,100137.15
2023-08-10T01:50:43.931Z,100134.66
2023-08-10T01:53:48.538Z,100131.10
2023-08-10T01:56:51.392Z,100131.02
2023-08-10T01:59:54.165Z,100135.10
2023-08-10T02:02:57.131Z,100132.67
2023-08-10T02:06:00.203Z,100136.02
2023-08-10T02:09:02.874Z,100138.50
2023-08-10T02:12:05.946Z,100136.89
2023-08-10T02:15:09.348Z,100131.96
2023-08-10T02:18:14.215Z,100134.20
2023-08-10T02:21:17.016Z,100130.45
2023-08-10T02:24:19.780Z,100134.74
2023-08-10T02:27:22.546Z,100137.30
2023-08-10T02:30:25.429Z,100136.81
2023-08-10T02:33:28.190Z,100138.52
2023-08-10T02:36:31.066Z,100131.52
2023-08-10T02:39:33.824Z,100134.70
2023-08-10T02:42:36.598Z,100138.58
2023-08-10T02:45:39.353Z,100143.14
2023-08-10T02:48:42.149Z,100140.81
2023-08-10T02:51:45.299Z,100139.52
2023-08-10T02:54:48.079Z,100141.28
2023-08-10T02:57:50.946Z,100141.43
2023-08-10T03:00:53.876Z,100138.25
2023-08-10T03:03:56.616Z,100142.39
2023-08-10T03:06:59.557Z,100140.42
2023-08-10T03:10:10.694Z,100143.62
2023-08-10T03:13:14.091Z,100146.60
2023-08-10T03:16:17.417Z,100145.46
2023-08-10T03:19:21.160Z,100147.80
2023-08-10T03:22:27.412Z,100147.98
2023-08-10T03:25:30.991Z,100151.08
2023-08-10T03:28:33.767Z,100152.20
2023-08-10T03:31:36.745Z,100153.80
2023-08-10T03:34:50.910Z,100153.83
2023-08-10T03:37:53.608Z,100159.55
2023-08-10T03:40:56.505Z,100160.98
2023-08-10T03:43:59.360Z,100158.55
2023-08-10T03:47:02.135Z,100156.40
2023-08-10T03:50:11.619Z,100158.61
2023-08-10T03:53:14.269Z,100159.96
2023-08-10T03:56:16.984Z,100158.11
2023-08-10T03:59:20.160Z,100157.39
2023-08-10T04:02:24.053Z,100160.66
2023-08-10T04:05:28.568Z,100165.03
2023-08-10T04:08:31.334Z,100170.59
2023-08-10T04:11:34.400Z,100165.16
2023-08-10T04:14:38.188Z,100163.59
2023-08-10T04:17:41.102Z,100162.52
2023-08-10T04:20:43.829Z,100165.20
2023-08-10T04:23:46.599Z,100164.09
2023-08-10T04:26:49.297Z,100163.55
2023-08-10T04:29:51.977Z,100162.91
2023-08-10T04:32:54.796Z,100165.49
2023-08-10T04:35:59.002Z,100166.34
2023-08-10T04:39:02.651Z,100169.04
2023-08-10T04:42:05.867Z,100168.56
2023-08-10T04:45:12.512Z,100171.95
2023-08-10T04:48:15.245Z,100170.36
2023-08-10T04:51:18.169Z,100173.55
2023-08-10T04:54:21.327Z,100172.63
2023-08-10T04:57:24.109Z,100178.79
2023-08-10T05:00:27.168Z,100184.91
2023-08-10T05:03:30.258Z,100191.08
2023-08-10T05:06:35.707Z,100193.48
2023-08-10T05:09:50.466Z,100198.38
2023-08-10T05:13:00.738Z,100200.33
2023-08-10T05:16:04.698Z,100206.92
2023-08-10T05:19:07.827Z,100206.52
2023-08-10T05:22:10.698Z,100209.30
2023-08-10T05:25:16.073Z,100211.65
2023-08-10T05:28:20.634Z,100213.96
2023-08-10T05:31:23.541Z,100216.00
2023-08-10T05:34:26.586Z,100221.00
2023-08-10T05:37:29.448Z,100221.11
2023-08-10T05:40:32.217Z,100220.65
2023-08-10T05:43:34.982Z,100221.59
2023-08-10T05:46:37.762Z,100223.26
2023-08-10T05:49:40.752Z,100224.35
2023-08-10T05:52:46.676Z,100222.95
2023-08-10T05:55:50.961Z,100227.66
2023-08-10T05:58:53.584Z,100227.76
2023-08-10T06:01:56.418Z,100229.91
2023-08-10T06:04:59.268Z,100231.80
2023-08-10T06:08:02.140Z,100230.42
2023-08-10T06:11:06.730Z,100226.51
2023-08-10T06:14:11.008Z,100222.11
2023-08-10T06:17:13.846Z,100220.86
2023-08-10T06:20:23.003Z,100224.54
2023-08-10T06:23:25.901Z,100225.83
2023-08-10T06:26:28.937Z,100229.07
2023-08-10T06:29:31.587Z,100228.96
2023-08-10T06:32:35.782Z,100231.88
2023-08-10T06:35:40.551Z,100233.38
2023-08-10T06:38:43.540Z,100234.48
2023-08-10T06:41:46.476Z,100234.52
2023-08-10T06:44:50.412Z,100234.73
2023-08-10T06:47:53.397Z,100235.08
2023-08-10T06:50:56.426Z,100232.25
2023-08-10T06:53:59.199Z,100235.63
2023-08-10T06:57:02.598Z,100234.73
2023-08-10T07:03:15.452Z,100234.41
2023-08-10T07:06:19.084Z,100238.15
2023-08-10T07:09:24.500Z,100236.44
2023-08-10T07:12:27.472Z,100235.89
2023-08-10T07:15:33.308Z,100237.67
2023-08-10T07:18:36.028Z,100236.31
2023-08-10T07:21:38.791Z,100235.02
2023-08-10T07:24:41.618Z,100235.34
2023-08-10T07:27:45.454Z,100236.54
2023-08-10T07:30:49.370Z,100236.88
2023-08-10T07:33:52.428Z,100236.01
2023-08-10T07:36:55.550Z,100235.02
2023-08-10T07:39:58.314Z,100230.25
2023-08-10T07:43:00.982Z,100234.55
2023-08-10T07:46:04.277Z,100233.31
2023-08-10T07:49:07.181Z,100235.14
2023-08-10T07:52:10.816Z,100240.11
2023-08-10T07:55:14.533Z,100242.93
2023-08-10T07:58:17.534Z,100245.31
2023-08-10T08:01:20.375Z,100250.23
2023-08-10T08:04:23.761Z,100251.72
2023-08-10T08:07:27.076Z,100256.35
2023-08-10T08:10:29.880Z,100255.92
2023-08-10T08:13:32.654Z,100252.83
2023-08-10T08:16:35.965Z,100251.52
2023-08-10T08:19:38.823Z,100250.08
2023-08-10T08:22:41.682Z,100248.55
2023-08-10T08:25:44.443Z,100254.48
2023-08-10T08:28:48.752Z,100254.64
2023-08-10T08:31:52.114Z,100255.05
2023-08-10T08:34:55.608Z,100255.42
2023-08-10T08:37:58.321Z,100249.51
2023-08-10T08:41:06.353Z,100247.02
2023-08-10T08:44:10.601Z,100248.33
2023-08-10T08:47:14.594Z,100242.88
2023-08-10T08:50:17.414Z,100248.48
2023-08-10T08:53:20.389Z,100244.58
2023-08-10T08:56:23.326Z,100241.30
2023-08-10T08:59:26.237Z,100239.22
2023-08-10T09:02:29.603Z,100240.45
2023-08-10T09:05:33.011Z,100247.55
2023-08-10T09:08:36.803Z,100246.67
2023-08-10T09:11:39.552Z,100247.78
2023-08-10T09:15:02.155Z,100248.56
2023-08-10T09:18:05.874Z,100250.27
2023-08-10T09:21:16.256Z,100262.14
2023-08-10T09:24:19.184Z,100258.23
2023-08-10T09:27:24.400Z,100247.34
2023-08-10T09:30:27.395Z,100249.61
2023-08-10T09:33:34.084Z,100247.48
2023-08-10T09:36:36.798Z,100247.54
2023-08-10T09:39:40.081Z,100249.55
2023-08-10T09:42:43.349Z,100247.77
2023-08-10T09:45:46.173Z,100256.00
2023-08-10T09:48:50.634Z,100253.23
2023-08-10T09:51:59.509Z,100253.34
2023-08-10T09:55:02.318Z,100248.77
2023-08-10T09:58:05.486Z,100254.90
2023-08-10T10:01:09.610Z,100254.18
2023-08-10T10:04:14.400Z,100257.86
2023-08-10T10:07:23.417Z,100267.73
2023-08-10T10:10:26.791Z,100270.04
2023-08-10T10:13:30.374Z,100268.79
2023-08-10T10:16:34.969Z,100265.73
2023-08-10T10:19:39.119Z,100263.11
2023-08-10T10:22:41.949Z,100271.36
2023-08-10T10:26:03.025Z,100260.08
2023-08-10T10:29:17.822Z,100262.09
2023-08-10T10:32:22.221Z,100254.96
2023-08-10T10:35:33.306Z,100245.74
2023-08-10T10:38:39.278Z,100250.27
2023-08-10T10:41:42.657Z,100250.54
2023-08-10T10:45:02.614Z,100254.45
2023-08-10T10:48:07.177Z,100252.42
2023-08-10T10:51:10.200Z,100250.55
2023-08-10T10:54:13.892Z,100249.13
2023-08-10T10:57:16.958Z,100254.21
2023-08-10T11:00:25.326Z,100254.63
2023-08-10T11:03:28.644Z,100245.27
2023-08-10T11:06:31.504Z,100242.86
2023-08-10T11:09:34.285Z,100234.95
2023-08-10T11:16:23.176Z,100227.56
2023-08-10T11:19:30.449Z,100239.04
2023-08-10T11:22:33.233Z,100234.42
2023-08-10T11:25:36.116Z,100235.98
2023-08-10T11:28:39.197Z,100238.39
2023-08-10T11:35:55.226Z,100228.13
2023-08-10T11:38:58.000Z,100236.23
2023-08-10T11:42:00.780Z,100233.45
2023-08-10T11:45:13.039Z,100225.85
2023-08-10T11:48:20.945Z,100232.59
2023-08-10T11:51:24.100Z,100225.33
2023-08-10T11:54:31.441Z,100219.14
2023-08-10T11:57:38.265Z,100224.59
2023-08-10T12:00:42.514Z,100225.03
2023-08-10T12:03:57.164Z,100212.31
2023-08-10T12:07:01.940Z,100213.48
2023-08-10T12:10:09.770Z,100212.84
2023-08-10T12:13:17.324Z,100205.67
2023-08-10T12:16:21.972Z,100202.48
2023-08-10T12:19:25.186Z,100204.75
2023-08-10T12:22:28.102Z,100208.16
2023-08-10T12:25:30.880Z,100200.51
2023-08-10T12:28:33.904Z,100202.89
2023-08-10T12:31:36.728Z,100197.23
2023-08-10T12:34:39.587Z,100196.50
2023-08-10T12:37:42.962Z,100204.06
2023-08-10T12:40:46.040Z,100202.55
2023-08-10T12:43:48.802Z,100198.91
2023-08-10T12:46:51.679Z,100200.64
2023-08-10T12:49:54.542Z,100201.57
2023-08-10T12:52:57.754Z,100204.98
2023-08-10T12:56:02.890Z,100198.25
2023-08-10T12:59:05.811Z,100193.58
2023-08-10T13:02:11.884Z,100193.36
2023-08-10T13:05:15.836Z,100199.44
2023-08-10T13:08:18.616Z,100195.70
2023-08-10T13:11:21.384Z,100189.35
2023-08-10T13:14:24.286Z,100191.38
2023-08-10T13:17:28.797Z,100198.92
2023-08-10T13:20:31.767Z,100200.13
2023-08-10T13:23:34.719Z,100190.23
2023-08-10T13:26:37.526Z,100194.99
2023-08-10T13:29:40.244Z,100192.83
2023-08-10T13:32:43.174Z,100197.92
2023-08-10T13:35:45.879Z,100204.40
2023-08-10T13:38:48.752Z,100200.45
2023-08-10T13:41:51.720Z,100205.91
2023-08-10T13:44:54.680Z,100206.55
2023-08-10T13:47:57.482Z,100201.30
2023-08-10T13:51:01.055Z,100200.92
2023-08-10T13:54:05.211Z,100198.64
2023-08-10T13:57:12.833Z,100200.77
2023-08-10T14:00:16.250Z,100198.90
2023-08-10T14:03:19.276Z,100197.94
2023-08-10T14:06:22.255Z,100197.94
2023-08-10T14:09:25.031Z,100202.14
2023-08-10T14:12:27.893Z,100197.06
2023-08-10T14:15:30.770Z,100195.36
2023-08-10T14:18:33.526Z,100194.73
2023-08-10T14:21:36.398Z,100198.55
2023-08-10T14:24:39.191Z,100199.07
2023-08-10T14:27:42.239Z,100201.80
2023-08-10T14:30:45.081Z,100194.07
2023-08-10T14:33:48.054Z,100193.08
2023-08-10T14:36:50.948Z,100195.83
2023-08-10T14:39:54.155Z,100194.80
2023-08-10T14:42:57.029Z,100191.67
2023-08-10T14:45:59.914Z,100190.48
2023-08-10T14:49:04.911Z,100192.88
2023-08-10T14:52:08.403Z,100192.48
2023-08-10T14:55:21.327Z,100195.64
2023-08-10T14:58:25.057Z,100194.64
2023-08-10T15:01:28.345Z,100191.98
2023-08-10T15:04:31.956Z,100196.95
2023-08-10T15:07:34.804Z,100194.95
2023-08-10T15:10:37.663Z,100194.06
2023-08-10T15:13:40.433Z,100198.21
2023-08-10T15:16:43.337Z,100193.63
2023-08-10T15:19:46.173Z,100194.71
2023-08-10T15:22:49.269Z,100194.84
2023-08-10T15:25:52.105Z,100192.19
2023-08-10T15:28:54.981Z,100197.02
2023-08-10T15:31:59.589Z,100197.47
2023-08-10T15:35:02.375Z,100193.47
2023-08-10T15:38:05.232Z,100191.47
2023-08-10T15:41:08.770Z,100191.95
2023-08-10T15:44:11.588Z,100197.16
2023-08-10T15:47:14.356Z,100189.58
2023-08-10T15:50:17.040Z,100183.30
2023-08-10T15:53:19.784Z,100197.66
2023-08-10T15:56:22.551Z,100194.70
2023-08-10T15:59:25.420Z,100195.04
2023-08-10T16:02:28.187Z,100199.16
2023-08-10T16:05:30.958Z,100202.95
2023-08-10T16:08:33.733Z,100203.29
2023-08-10T16:11:36.701Z,100205.27
2023-08-10T16:14:39.576Z,100210.27
2023-08-10T16:17:42.447Z,100210.70
2023-08-10T16:20:46.028Z,100208.64
2023-08-10T16:23:48.902Z,100215.92
2023-08-10T16:26:51.643Z,100218.86
2023-08-10T16:29:54.433Z,100217.25
2023-08-10T16:32:57.229Z,100217.83
2023-08-10T16:36:00.194Z,100218.44
2023-08-10T16:39:03.078Z,100220.65
2023-08-10T16:42:06.422Z,100225.98
2023-08-10T16:45:10.538Z,100232.55
2023-08-10T16:48:13.382Z,100229.00
2023-08-10T16:51:16.367Z,100224.59
2023-08-10T16:54:19.077Z,100219.71
2023-08-10T16:57:22.116Z,100219.48
2023-08-10T17:00:26.010Z,100221.36
2023-08-10T17:03:29.073Z,100220.34
2023-08-10T17:06:31.870Z,100229.73
2023-08-10T17:09:34.615Z,100225.90
2023-08-10T17:12:37.392Z,100227.04
2023-08-10T17:15:40.260Z,100228.73
2023-08-10T17:18:43.227Z,100226.95
2023-08-10T17:21:45.986Z,100228.32
2023-08-10T17:24:49.577Z,100233.70
2023-08-10T17:27:52.350Z,100232.94
2023-08-10T17:30:57.060Z,100237.20
2023-08-10T17:34:01.138Z,100236.44
2023-08-10T17:37:04.590Z,100233.42
2023-08-10T17:40:09.249Z,100232.64
2023-08-10T17:43:13.507Z,100234.33
2023-08-10T17:46:17.084Z,100233.77
2023-08-10T17:49:22.346Z,100233.39
2023-08-10T17:52:25.260Z,100237.36
2023-08-10T17:55:28.975Z,100236.88
2023-08-10T17:58:31.766Z,100239.36
2023-08-10T18:01:36.552Z,100237.30
2023-08-10T18:04:39.374Z,100242.13
2023-08-10T18:07:42.360Z,100240.52
2023-08-10T18:10:45.094Z,100245.56
2023-08-10T18:13:51.031Z,100248.38
2023-08-10T18:16:53.929Z,100248.30
2023-08-10T18:19:56.706Z,100251.14
2023-08-10T18:22:59.462Z,100250.42
2023-08-10T18:26:04.462Z,100254.35
2023-08-10T18:29:07.863Z,100257.20
2023-08-10T18:32:11.620Z,100258.08
2023-08-10T18:35:17.410Z,100263.98
2023-08-10T18:38:22.562Z,100265.80
2023-08-10T18:41:25.489Z,100271.26
2023-08-10T18:44:28.656Z,100273.32
2023-08-10T18:47:31.550Z,100276.24
2023-08-10T18:50:36.335Z,100276.86
2023-08-10T18:53:39.201Z,100276.14
2023-08-10T18:56:43.099Z,100283.05
2023-08-10T18:59:45.863Z,100281.80
2023-08-10T19:02:48.771Z,100286.56
2023-08-10T19:05:51.823Z,100288.84
2023-08-10T19:08:54.677Z,100294.48
2023-08-10T19:11:57.754Z,100295.34
2023-08-10T19:15:00.626Z,100294.16
2023-08-10T19:18:03.566Z,100295.86
2023-08-10T19:21:07.674Z,100297.42
2023-08-10T19:24:10.636Z,100298.80
2023-08-10T19:27:13.634Z,100301.63
2023-08-10T19:30:16.446Z,100300.31
2023-08-10T19:33:19.377Z,100299.86
2023-08-10T19:36:22.210Z,100302.23
2023-08-10T19:39:24.964Z,100302.44
2023-08-10T19:42:28.602Z,100307.86
2023-08-10T19:45:31.498Z,100312.11
2023-08-10T19:48:38.231Z,100312.20
2023-08-10T19:51:41.103Z,100313.16
2023-08-10T19:54:43.996Z,100315.60
2023-08-10T19:57:47.768Z,100315.14
2023-08-10T20:00:52.411Z,100319.33
2023-08-10T20:03:55.279Z,100321.10
2023-08-10T20:06:59.036Z,100324.48
2023-08-10T20:10:02.107Z,100325.86
2023-08-10T20:13:05.029Z,100328.25
2023-08-10T20:16:07.853Z,100327.46
2023-08-10T20:19:15.684Z,100326.50
2023-08-10T20:22:21.072Z,100331.73
2023-08-10T20:25:24.337Z,100331.00
2023-08-10T20:28:27.225Z,100330.69
2023-08-10T20:31:30.106Z,100329.85
2023-08-10T20:34:34.055Z,100334.23
2023-08-10T20:37:37.457Z,100324.99
2023-08-10T20:40:42.882Z,100335.07
2023-08-10T20:43:45.725Z,100333.36
2023-08-10T20:46:53.433Z,100333.70
2023-08-10T20:49:57.598Z,100335.88
2023-08-10T20:53:19.230Z,100331.92
2023-08-10T20:56:22.603Z,100335.81
2023-08-10T20:59:25.505Z,100327.52
2023-08-10T21:02:28.554Z,100334.61
2023-08-10T21:05:32.141Z,100329.21
2023-08-10T21:08:35.532Z,100335.13
2023-08-10T21:11:38.394Z,100329.98
2023-08-10T21:14:41.266Z,100327.95
2023-08-10T21:17:44.201Z,100320.90
2023-08-10T21:20:47.227Z,100332.66
2023-08-10T21:23:50.084Z,100331.63
2023-08-10T21:26:55.307Z,100332.02
2023-08-10T21:29:58.019Z,100334.04
2023-08-10T21:33:00.894Z,100333.20
2023-08-10T21:36:06.325Z,100336.86
2023-08-10T21:39:10.998Z,100343.35
2023-08-10T21:42:13.948Z,100346.16
2023-08-10T21:45:16.728Z,100341.05
2023-08-10T21:48:19.585Z,100342.02
2023-08-10T21:51:22.454Z,100337.39
2023-08-10T21:54:25.332Z,100338.15
2023-08-10T21:57:28.198Z,100337.34
2023-08-10T22:00:31.130Z,100337.98
2023-08-10T22:03:37.619Z,100338.98
2023-08-10T22:06:42.234Z,100334.48
2023-08-10T22:09:45.005Z,100337.88
2023-08-10T22:12:47.760Z,100335.88
2023-08-10T22:15:54.082Z,100339.21
2023-08-10T22:18:59.542Z,100344.36
2023-08-10T22:22:02.438Z,100342.80
2023-08-10T22:25:06.000Z,100342.45
2023-08-10T22:28:11.690Z,100341.01
2023-08-10T22:31:14.652Z,100340.11
2023-08-10T22:34:17.684Z,100342.80
2023-08-10T22:37:22.740Z,100336.15
2023-08-10T22:40:25.977Z,100336.06
2023-08-10T22:43:28.692Z,100333.00
2023-08-10T22:46:31.574Z,100333.52
2023-08-10T22:49:34.751Z,100330.39
2023-08-10T22:52:37.561Z,100329.48
2023-08-10T22:55:40.328Z,100328.41
2023-08-10T22:58:43.396Z,100331.98
2023-08-10T23:01:47.106Z,100331.73
2023-08-10T23:04:49.956Z,100329.79
2023-08-10T23:07:52.823Z,100326.95
2023-08-10T23:10:56.006Z,100327.90
2023-08-10T23:13:59.898Z,100325.61
2023-08-10T23:17:02.764Z,100324.02
2023-08-10T23:20:13.341Z,100324.19
2023-08-10T23:23:16.495Z,100322.98
2023-08-10T23:26:19.356Z,100323.97
2023-08-10T23:29:22.749Z,100320.54
2023-08-10T23:32:25.629Z,100324.55
2023-08-10T23:35:29.447Z,100326.02
2023-08-10T23:38:35.233Z,100319.39
2023-08-10T23:41:38.009Z,100322.14
2023-08-10T23:44:41.506Z,100319.79
2023-08-10T23:47:44.526Z,100321.10
2023-08-10T23:50:47.429Z,100320.46
2023-08-10T23:53:50.302Z,100311.34
2023-08-10T23:56:53.291Z,100311.29
2023-08-10T23:59:56.148Z,100317.55
